createdAt,value
2019-02-12T00:00:42.540Z,100422.00
2019-02-12T00:03:15.440Z,100425.00
2019-02-12T00:05:48.188Z,100425.00
2019-02-12T00:08:21.791Z,100420.00
2019-02-12T00:10:55.207Z,100424.00
2019-02-12T00:13:28.752Z,100424.00
2019-02-12T00:16:02.200Z,100426.00
2019-02-12T00:18:36.720Z,100427.00
2019-02-12T00:21:10.004Z,100428.00
2019-02-12T00:23:43.378Z,100421.00
2019-02-12T00:26:16.635Z,100420.00
2019-02-12T00:28:50.199Z,100426.00
2019-02-12T00:31:23.207Z,100424.00
2019-02-12T00:33:57.541Z,100432.00
2019-02-12T00:36:31.023Z,100426.00
2019-02-12T00:39:05.717Z,100434.00
2019-02-12T00:41:39.250Z,100424.00
2019-02-12T00:44:13.563Z,100435.00
2019-02-12T00:46:47.049Z,100436.00
2019-02-12T00:49:21.110Z,100442.00
2019-02-12T00:51:54.222Z,100438.00
2019-02-12T00:54:28.515Z,100437.00
2019-02-12T00:57:02.254Z,100438.00
2019-02-12T00:59:35.555Z,100442.00
2019-02-12T01:02:08.895Z,100445.00
2019-02-12T01:04:43.436Z,100454.00
2019-02-12T01:07:16.666Z,100457.00
2019-02-12T01:09:49.982Z,100450.00
2019-02-12T01:12:24.253Z,100442.00
2019-02-12T01:14:57.486Z,100444.00
2019-02-12T01:17:31.355Z,100457.00
2019-02-12T01:20:04.687Z,100453.00
2019-02-12T01:22:38.253Z,100450.00
2019-02-12T01:25:11.738Z,100453.00
2019-02-12T01:27:45.540Z,100459.00
2019-02-12T01:30:19.167Z,100462.00
2019-02-12T01:32:52.062Z,100466.00
2019-02-12T01:35:24.963Z,100463.00
2019-02-12T01:37:58.852Z,100459.00
2019-02-12T01:40:31.646Z,100471.00
2019-02-12T01:43:04.483Z,100467.00
2019-02-12T01:45:37.229Z,100463.00
2019-02-12T01:48:10.495Z,100472.00
2019-02-12T01:50:43.183Z,100466.00
2019-02-12T01:53:16.167Z,100469.00
2019-02-12T01:55:48.849Z,100454.00
2019-02-12T01:58:22.843Z,100458.00
2019-02-12T02:00:55.552Z,100461.00
2019-02-12T02:03:28.305Z,100444.00
2019-02-12T02:06:01.255Z,100456.00
2019-02-12T02:08:34.082Z,100452.00
2019-02-12T02:11:08.189Z,100448.00
2019-02-12T02:13:41.408Z,100450.00
2019-02-12T02:16:15.092Z,100446.00
2019-02-12T02:18:47.943Z,100450.00
2019-02-12T02:21:20.940Z,100442.00
2019-02-12T02:23:53.615Z,100437.00
2019-02-12T02:26:27.320Z,100482.00
2019-02-12T02:29:00.220Z,100440.00
2019-02-12T02:31:33.293Z,100431.00
2019-02-12T02:34:05.888Z,100426.00
2019-02-12T02:36:39.184Z,100446.00
2019-02-12T02:39:12.395Z,100455.00
2019-02-12T02:41:45.647Z,100454.00
2019-02-12T02:44:18.402Z,100463.00
2019-02-12T02:46:52.362Z,100451.00
2019-02-12T02:49:25.761Z,100459.00
2019-02-12T02:51:59.241Z,100451.00
2019-02-12T02:54:32.681Z,100462.00
2019-02-12T02:57:06.954Z,100448.00
2019-02-12T02:59:40.496Z,100440.00
2019-02-12T03:02:14.135Z,100440.00
2019-02-12T03:04:46.952Z,100441.00
2019-02-12T03:07:19.605Z,100432.00
2019-02-12T03:09:53.453Z,100429.00
2019-02-12T03:12:26.084Z,100435.00
2019-02-12T03:14:58.853Z,100443.00
2019-02-12T03:17:31.681Z,100446.00
2019-02-12T03:20:05.792Z,100433.00
2019-02-12T03:22:38.495Z,100438.00
2019-02-12T03:25:13.869Z,100439.00
2019-02-12T03:27:47.234Z,100444.00
2019-02-12T03:30:20.634Z,100440.00
2019-02-12T03:32:53.282Z,100440.00
2019-02-12T03:35:26.248Z,100443.00
2019-02-12T03:37:58.881Z,100436.00
2019-02-12T03:40:32.783Z,100433.00
2019-02-12T03:43:05.427Z,100425.00
2019-02-12T03:45:39.352Z,100432.00
2019-02-12T03:48:12.653Z,100427.00
2019-02-12T03:50:45.827Z,100424.00
2019-02-12T03:53:18.618Z,100432.00
2019-02-12T03:55:51.586Z,100440.00
2019-02-12T03:58:24.384Z,100430.00
2019-02-12T04:00:57.590Z,100435.00
2019-02-12T04:03:30.961Z,100426.00
2019-02-12T04:06:03.898Z,100433.00
2019-02-12T04:08:36.746Z,100442.00
2019-02-12T04:11:09.516Z,100433.00
2019-02-12T04:14:01.928Z,100443.00
2019-02-12T04:16:34.648Z,100437.00
2019-02-12T04:19:08.544Z,100441.00
2019-02-12T04:21:41.112Z,100445.00
2019-02-12T04:24:14.108Z,100443.00
2019-02-12T04:26:46.942Z,100445.00
2019-02-12T04:29:20.295Z,100453.00
2019-02-12T04:31:53.086Z,100448.00
2019-02-12T04:34:26.854Z,100457.00
2019-02-12T04:36:59.783Z,100449.00
2019-02-12T04:39:32.500Z,100447.00
2019-02-12T04:42:05.220Z,100463.00
2019-02-12T04:44:38.133Z,100459.00
2019-02-12T04:47:10.983Z,100466.00
2019-02-12T04:49:43.765Z,100464.00
2019-02-12T04:52:16.753Z,100462.00
2019-02-12T04:54:49.546Z,100464.00
2019-02-12T04:57:22.125Z,100474.00
2019-02-12T04:59:54.921Z,100469.00
2019-02-12T05:02:27.808Z,100476.00
2019-02-12T05:05:00.482Z,100472.00
2019-02-12T05:07:33.372Z,100471.00
2019-02-12T05:10:06.432Z,100469.00
2019-02-12T05:12:39.577Z,100476.00
2019-02-12T05:15:13.004Z,100470.00
2019-02-12T05:17:46.425Z,100469.00
2019-02-12T05:20:19.206Z,100483.00
2019-02-12T05:22:52.866Z,100478.00
2019-02-12T05:25:25.585Z,100486.00
2019-02-12T05:27:58.510Z,100472.00
2019-02-12T05:30:31.146Z,100478.00
2019-02-12T05:33:04.125Z,100469.00
2019-02-12T05:35:36.783Z,100474.00
2019-02-12T05:38:09.398Z,100473.00
2019-02-12T05:40:42.398Z,100478.00
2019-02-12T05:43:16.055Z,100481.00
2019-02-12T05:45:48.542Z,100473.00
2019-02-12T05:48:21.447Z,100479.00
2019-02-12T05:50:54.225Z,100473.00
2019-02-12T05:53:27.154Z,100479.00
2019-02-12T05:56:00.419Z,100480.00
2019-02-12T05:58:33.319Z,100478.00
2019-02-12T06:01:06.401Z,100480.00
2019-02-12T06:03:39.182Z,100489.00
2019-02-12T06:06:11.819Z,100493.00
2019-02-12T06:08:45.536Z,100482.00
2019-02-12T06:11:18.435Z,100490.00
2019-02-12T06:13:51.258Z,100494.00
2019-02-12T06:16:24.860Z,100485.00
2019-02-12T06:18:58.378Z,100490.00
2019-02-12T06:21:31.401Z,100489.00
2019-02-12T06:24:04.286Z,100491.00
2019-02-12T06:26:38.236Z,100489.00
2019-02-12T06:29:11.292Z,100501.00
2019-02-12T06:31:44.063Z,100498.00
2019-02-12T06:34:16.993Z,100502.00
2019-02-12T06:36:49.827Z,100509.00
2019-02-12T06:39:28.451Z,100515.00
2019-02-12T06:42:05.714Z,100518.00
2019-02-12T06:44:49.229Z,100519.00
2019-02-12T06:47:46.063Z,100532.00
2019-02-12T06:51:11.373Z,100526.00
2019-02-12T06:53:58.138Z,100535.00
2019-02-12T06:56:30.915Z,100537.00
2019-02-12T06:59:05.829Z,100537.00
2019-02-12T07:01:38.665Z,100547.00
2019-02-12T07:04:12.590Z,100535.00
2019-02-12T07:06:56.301Z,100538.00
2019-02-12T07:09:37.718Z,100543.00
2019-02-12T07:12:15.682Z,100551.00
2019-02-12T07:14:56.556Z,100548.00
2019-02-12T07:17:34.890Z,100553.00
2019-02-12T07:20:18.355Z,100557.00
2019-02-12T07:23:01.765Z,100557.00
2019-02-12T07:25:56.317Z,100559.00
2019-02-12T07:28:50.804Z,100560.00
2019-02-12T07:31:34.797Z,100563.00
2019-02-12T07:34:25.067Z,100554.00
2019-02-12T07:37:06.213Z,100564.00
2019-02-12T07:39:47.101Z,100561.00
2019-02-12T07:42:37.441Z,100569.00
2019-02-12T07:45:21.009Z,100564.00
2019-02-12T07:48:01.717Z,100562.00
2019-02-12T07:50:51.938Z,100578.00
2019-02-12T07:53:36.219Z,100571.00
2019-02-12T07:56:13.923Z,100571.00
2019-02-12T07:58:52.923Z,100574.00
2019-02-12T08:01:48.795Z,100586.00
2019-02-12T08:04:57.025Z,100581.00
2019-02-12T08:07:35.194Z,100582.00
2019-02-12T08:10:25.279Z,100587.00
2019-02-12T08:13:28.810Z,100595.00
2019-02-12T08:16:20.981Z,100596.00
2019-02-12T08:19:00.363Z,100598.00
2019-02-12T08:21:41.174Z,100608.00
2019-02-12T08:24:37.053Z,100604.00
2019-02-12T08:27:39.804Z,100615.00
2019-02-12T08:30:23.803Z,100616.00
2019-02-12T08:33:10.829Z,100615.00
2019-02-12T08:35:57.197Z,100619.00
2019-02-12T08:38:49.840Z,100626.00
2019-02-12T08:41:44.178Z,100625.00
2019-02-12T08:44:37.157Z,100637.00
2019-02-12T08:47:21.029Z,100640.00
2019-02-12T08:50:13.681Z,100644.00
2019-02-12T08:53:10.162Z,100656.00
2019-02-12T08:56:02.900Z,100655.00
2019-02-12T08:58:44.800Z,100655.00
2019-02-12T09:01:25.108Z,100671.00
2019-02-12T09:04:21.352Z,100664.00
2019-02-12T09:07:02.392Z,100673.00
2019-02-12T09:09:52.314Z,100676.00
2019-02-12T09:12:27.418Z,100674.00
2019-02-12T09:15:26.262Z,100680.00
2019-02-12T09:18:13.342Z,100679.00
2019-02-12T09:20:48.090Z,100692.00
2019-02-12T09:23:26.199Z,100681.00
2019-02-12T09:26:35.699Z,100680.00
2019-02-12T09:29:22.758Z,100686.00
2019-02-12T09:32:21.792Z,100688.00
2019-02-12T09:34:56.512Z,100687.00
2019-02-12T09:37:43.542Z,100688.00
2019-02-12T09:40:42.544Z,100687.00
2019-02-12T09:43:45.050Z,100684.00
2019-02-12T09:46:38.849Z,100686.00
2019-02-12T09:49:28.156Z,100685.00
2019-02-12T09:52:23.919Z,100685.00
2019-02-12T09:55:08.308Z,100695.00
2019-02-12T09:57:52.223Z,100701.00
2019-02-12T10:00:26.990Z,100695.00
2019-02-12T10:03:20.749Z,100698.00
2019-02-12T10:06:04.585Z,100706.00
2019-02-12T10:09:00.512Z,100708.00
2019-02-12T10:11:44.596Z,100706.00
2019-02-12T10:14:40.564Z,100709.00
2019-02-12T10:17:21.712Z,100714.00
2019-02-12T10:19:56.244Z,100719.00
2019-02-12T10:22:38.216Z,100720.00
2019-02-12T10:25:12.885Z,100713.00
2019-02-12T10:27:57.147Z,100713.00
2019-02-12T10:30:48.701Z,100719.00
2019-02-12T10:33:21.735Z,100710.00
2019-02-12T10:35:54.390Z,100713.00
2019-02-12T10:38:27.198Z,100718.00
2019-02-12T10:41:00.215Z,100720.00
2019-02-12T10:43:33.133Z,100712.00
2019-02-12T10:46:05.966Z,100706.00
2019-02-12T10:48:38.584Z,100710.00
2019-02-12T10:51:11.778Z,100714.00
2019-02-12T10:53:44.616Z,100716.00
2019-02-12T10:56:17.628Z,100733.00
2019-02-12T10:58:50.528Z,100730.00
2019-02-12T11:01:23.166Z,100726.00
2019-02-12T11:03:55.949Z,100733.00
2019-02-12T11:06:28.934Z,100728.00
2019-02-12T11:09:01.732Z,100739.00
2019-02-12T11:11:34.706Z,100736.00
2019-02-12T11:14:07.503Z,100740.00
2019-02-12T11:16:40.609Z,100743.00
2019-02-12T11:19:13.252Z,100735.00
2019-02-12T11:21:46.194Z,100737.00
2019-02-12T11:24:18.837Z,100740.00
2019-02-12T11:26:51.917Z,100734.00
2019-02-12T11:29:24.900Z,100738.00
2019-02-12T11:31:58.209Z,100736.00
2019-02-12T11:34:31.271Z,100749.00
2019-02-12T11:37:04.108Z,100745.00
2019-02-12T11:39:37.036Z,100748.00
2019-02-12T11:42:10.761Z,100751.00
2019-02-12T11:44:43.904Z,100759.00
2019-02-12T11:47:16.712Z,100751.00
2019-02-12T11:49:49.735Z,100758.00
2019-02-12T11:52:22.876Z,100761.00
2019-02-12T11:54:55.729Z,100756.00
2019-02-12T11:57:28.872Z,100759.00
2019-02-12T12:00:01.547Z,100760.00
2019-02-12T12:02:41.847Z,100764.00
2019-02-12T12:05:10.510Z,100756.00
2019-02-12T12:07:44.521Z,100754.00
2019-02-12T12:10:17.181Z,100759.00
2019-02-12T12:12:50.219Z,100767.00
2019-02-12T12:15:22.862Z,100760.00
2019-02-12T12:17:56.195Z,100771.00
2019-02-12T12:20:28.848Z,100761.00
2019-02-12T12:23:01.854Z,100758.00
2019-02-12T12:25:34.607Z,100769.00
2019-02-12T12:28:07.583Z,100762.00
2019-02-12T12:30:40.456Z,100762.00
2019-02-12T12:33:13.268Z,100758.00
2019-02-12T12:35:46.426Z,100753.00
2019-02-12T12:38:19.161Z,100750.00
2019-02-12T12:40:52.262Z,100747.00
2019-02-12T12:43:24.739Z,100750.00
2019-02-12T12:45:57.902Z,100738.00
2019-02-12T12:48:30.645Z,100738.00
2019-02-12T12:51:03.734Z,100733.00
2019-02-12T12:53:36.839Z,100731.00
2019-02-12T12:56:09.827Z,100728.00
2019-02-12T12:58:42.615Z,100731.00
2019-02-12T13:01:15.768Z,100730.00
2019-02-12T13:03:48.668Z,100725.00
2019-02-12T13:06:21.388Z,100722.00
2019-02-12T13:08:54.287Z,100733.00
2019-02-12T13:11:26.844Z,100736.00
2019-02-12T13:13:59.708Z,100737.00
2019-02-12T13:16:32.767Z,100733.00
2019-02-12T13:19:05.807Z,100743.00
2019-02-12T13:21:38.442Z,100740.00
2019-02-12T13:24:11.471Z,100738.00
2019-02-12T13:26:44.562Z,100736.00
2019-02-12T13:29:17.630Z,100734.00
2019-02-12T13:31:50.546Z,100733.00
2019-02-12T13:34:23.367Z,100735.00
2019-02-12T13:36:56.203Z,100737.00
2019-02-12T13:39:28.999Z,100724.00
2019-02-12T13:42:01.738Z,100727.00
2019-02-12T13:44:34.702Z,100725.00
2019-02-12T13:47:07.497Z,100731.00
2019-02-12T13:49:40.275Z,100725.00
2019-02-12T13:52:13.331Z,100734.00
2019-02-12T13:54:47.167Z,100727.00
2019-02-12T13:57:19.971Z,100727.00
2019-02-12T13:59:52.704Z,100721.00
2019-02-12T14:02:25.440Z,100736.00
2019-02-12T14:04:58.557Z,100732.00
2019-02-12T14:07:31.320Z,100733.00
2019-02-12T14:10:04.119Z,100732.00
2019-02-12T14:12:37.515Z,100736.00
2019-02-12T14:15:12.269Z,100732.00
2019-02-12T14:17:45.483Z,100735.00
2019-02-12T14:20:18.841Z,100728.00
2019-02-12T14:22:51.932Z,100726.00
2019-02-12T14:25:25.865Z,100734.00
2019-02-12T14:27:58.762Z,100727.00
2019-02-12T14:30:31.768Z,100732.00
2019-02-12T14:33:04.666Z,100737.00
2019-02-12T14:35:37.735Z,100731.00
2019-02-12T14:38:10.674Z,100729.00
2019-02-12T14:40:43.496Z,100733.00
2019-02-12T14:43:16.262Z,100738.00
2019-02-12T14:45:49.028Z,100735.00
2019-02-12T14:48:21.502Z,100742.00
2019-02-12T14:50:55.399Z,100737.00
2019-02-12T14:53:28.017Z,100738.00
2019-02-12T14:56:01.505Z,100740.00
2019-02-12T14:58:34.398Z,100747.00
2019-02-12T15:01:08.032Z,100747.00
2019-02-12T15:03:41.667Z,100740.00
2019-02-12T15:06:14.412Z,100746.00
2019-02-12T15:08:47.393Z,100746.00
2019-02-12T15:11:20.311Z,100748.00
2019-02-12T15:13:53.308Z,100740.00
2019-02-12T15:16:26.024Z,100752.00
2019-02-12T15:18:59.837Z,100751.00
2019-02-12T15:21:32.852Z,100747.00
2019-02-12T15:24:05.456Z,100751.00
2019-02-12T15:26:38.388Z,100757.00
2019-02-12T15:29:11.154Z,100749.00
2019-02-12T15:31:44.193Z,100754.00
2019-02-12T15:34:17.022Z,100748.00
2019-02-12T15:36:50.038Z,100749.00
2019-02-12T15:39:22.851Z,100743.00
2019-02-12T15:41:55.934Z,100746.00
2019-02-12T15:44:28.567Z,100747.00
2019-02-12T15:47:01.427Z,100752.00
2019-02-12T15:49:34.282Z,100745.00
2019-02-12T15:52:07.316Z,100746.00
2019-02-12T15:54:40.256Z,100744.00
2019-02-12T15:57:13.307Z,100744.00
2019-02-12T15:59:46.240Z,100744.00
2019-02-12T16:02:19.160Z,100741.00
2019-02-12T16:04:52.095Z,100744.00
2019-02-12T16:07:25.053Z,100752.00
2019-02-12T16:09:57.914Z,100745.00
2019-02-12T16:12:31.745Z,100749.00
2019-02-12T16:15:04.702Z,100746.00
2019-02-12T16:17:39.222Z,100743.00
2019-02-12T16:20:11.901Z,100750.00
2019-02-12T16:22:44.713Z,100747.00
2019-02-12T16:25:18.654Z,100754.00
2019-02-12T16:27:52.305Z,100747.00
2019-02-12T16:30:25.538Z,100754.00
2019-02-12T16:32:58.874Z,100759.00
2019-02-12T16:35:32.624Z,100761.00
2019-02-12T16:38:05.383Z,100758.00
2019-02-12T16:40:38.886Z,100752.00
2019-02-12T16:43:11.339Z,100761.00
2019-02-12T16:45:49.259Z,100759.00
2019-02-12T16:48:22.011Z,100754.00
2019-02-12T16:50:54.515Z,100755.00
2019-02-12T16:53:27.982Z,100757.00
2019-02-12T16:56:08.082Z,100770.00
2019-02-12T16:58:34.861Z,100768.00
2019-02-12T17:01:07.806Z,100771.00
2019-02-12T17:03:40.481Z,100776.00
2019-02-12T17:06:13.292Z,100760.00
2019-02-12T17:08:46.021Z,100772.00
2019-02-12T17:11:18.723Z,100769.00
2019-02-12T17:13:51.704Z,100772.00
2019-02-12T17:16:24.343Z,100778.00
2019-02-12T17:18:57.208Z,100780.00
2019-02-12T17:21:29.879Z,100789.00
2019-02-12T17:24:02.843Z,100791.00
2019-02-12T17:26:35.739Z,100792.00
2019-02-12T17:29:08.845Z,100796.00
2019-02-12T17:31:41.579Z,100809.00
2019-02-12T17:34:14.424Z,100810.00
2019-02-12T17:36:47.261Z,100806.00
2019-02-12T17:39:20.061Z,100818.00
2019-02-12T17:41:52.712Z,100822.00
2019-02-12T17:44:25.496Z,100827.00
2019-02-12T17:46:59.399Z,100818.00
2019-02-12T17:49:32.052Z,100827.00
2019-02-12T17:52:05.104Z,100825.00
2019-02-12T17:54:37.752Z,100835.00
2019-02-12T17:57:10.845Z,100838.00
2019-02-12T17:59:43.609Z,100833.00
2019-02-12T18:02:16.477Z,100832.00
2019-02-12T18:04:49.181Z,100844.00
2019-02-12T18:07:22.184Z,100849.00
2019-02-12T18:09:54.949Z,100836.00
2019-02-12T18:12:27.999Z,100834.00
2019-02-12T18:15:01.334Z,100849.00
2019-02-12T18:17:34.193Z,100844.00
2019-02-12T18:20:07.694Z,100851.00
2019-02-12T18:22:40.685Z,100848.00
2019-02-12T18:25:13.886Z,100855.00
2019-02-12T18:27:47.423Z,100848.00
2019-02-12T18:30:20.369Z,100850.00
2019-02-12T18:32:53.058Z,100852.00
2019-02-12T18:35:26.026Z,100846.00
2019-02-12T18:37:58.836Z,100843.00
2019-02-12T18:40:31.790Z,100844.00
2019-02-12T18:43:04.550Z,100839.00
2019-02-12T18:45:37.178Z,100834.00
2019-02-12T18:48:10.066Z,100844.00
2019-02-12T18:50:42.816Z,100847.00
2019-02-12T18:53:15.519Z,100847.00
2019-02-12T18:55:48.427Z,100863.00
2019-02-12T18:58:21.183Z,100856.00
2019-02-12T19:00:53.984Z,100852.00
2019-02-12T19:03:26.851Z,100859.00
2019-02-12T19:05:59.688Z,100856.00
2019-02-12T19:08:32.320Z,100858.00
2019-02-12T19:11:05.079Z,100856.00
2019-02-12T19:13:37.824Z,100855.00
2019-02-12T19:16:10.797Z,100861.00
2019-02-12T19:18:43.562Z,100857.00
2019-02-12T19:21:16.549Z,100866.00
2019-02-12T19:23:50.550Z,100852.00
2019-02-12T19:26:23.450Z,100859.00
2019-02-12T19:28:56.411Z,100854.00
2019-02-12T19:31:29.095Z,100848.00
2019-02-12T19:34:02.059Z,100854.00
2019-02-12T19:36:34.635Z,100851.00
2019-02-12T19:39:08.046Z,100862.00
2019-02-12T19:41:40.820Z,100859.00
2019-02-12T19:44:13.907Z,100864.00
2019-02-12T19:46:46.585Z,100862.00
2019-02-12T19:49:19.575Z,100867.00
2019-02-12T19:51:52.495Z,100878.00
2019-02-12T19:54:25.523Z,100870.00
2019-02-12T19:56:58.605Z,100872.00
2019-02-12T19:59:32.412Z,100877.00
2019-02-12T20:02:05.002Z,100876.00
2019-02-12T20:04:37.698Z,100878.00
2019-02-12T20:07:10.474Z,100875.00
2019-02-12T20:09:43.275Z,100877.00
2019-02-12T20:12:16.248Z,100877.00
2019-02-12T20:14:49.045Z,100881.00
2019-02-12T20:17:21.946Z,100872.00
2019-02-12T20:19:54.593Z,100872.00
2019-02-12T20:22:27.514Z,100866.00
2019-02-12T20:25:00.311Z,100868.00
2019-02-12T20:27:35.973Z,100864.00
2019-02-12T20:30:18.224Z,100851.00
2019-02-12T20:32:51.065Z,100852.00
2019-02-12T20:35:25.438Z,100869.00
2019-02-12T20:37:58.330Z,100856.00
2019-02-12T20:40:30.988Z,100862.00
2019-02-12T20:43:03.978Z,100862.00
2019-02-12T20:45:36.755Z,100855.00
2019-02-12T20:48:09.496Z,100853.00
2019-02-12T20:50:42.127Z,100844.00
2019-02-12T20:53:14.915Z,100853.00
2019-02-12T20:55:47.727Z,100864.00
2019-02-12T20:58:20.578Z,100859.00
2019-02-12T21:00:53.440Z,100857.00
2019-02-12T21:03:26.227Z,100838.00
2019-02-12T21:05:59.413Z,100845.00
2019-02-12T21:08:33.098Z,100836.00
2019-02-12T21:11:07.307Z,100856.00
2019-02-12T21:13:39.888Z,100858.00
2019-02-12T21:16:12.581Z,100856.00
2019-02-12T21:18:46.749Z,100854.00
2019-02-12T21:21:19.746Z,100833.00
2019-02-12T21:23:52.503Z,100854.00
2019-02-12T21:26:25.169Z,100839.00
2019-02-12T21:28:58.343Z,100836.00
2019-02-12T21:31:31.342Z,100867.00
2019-02-12T21:34:04.488Z,100854.00
2019-02-12T21:36:37.524Z,100855.00
2019-02-12T21:39:11.492Z,100844.00
2019-02-12T21:41:45.024Z,100843.00
2019-02-12T21:44:18.133Z,100838.00
2019-02-12T21:46:51.752Z,100838.00
2019-02-12T21:49:24.621Z,100870.00
2019-02-12T21:51:58.389Z,100844.00
2019-02-12T21:54:31.296Z,100855.00
2019-02-12T21:57:04.421Z,100877.00
2019-02-12T21:59:37.220Z,100854.00
2019-02-12T22:02:10.073Z,100851.00
2019-02-12T22:04:42.937Z,100879.00
2019-02-12T22:07:15.839Z,100887.00
2019-02-12T22:09:48.601Z,100856.00
2019-02-12T22:12:21.233Z,100863.00
2019-02-12T22:14:54.081Z,100856.00
2019-02-12T22:17:26.606Z,100852.00
2019-02-12T22:19:59.309Z,100854.00
2019-02-12T22:22:32.122Z,100882.00
2019-02-12T22:25:05.102Z,100846.00
2019-02-12T22:27:40.508Z,100844.00
2019-02-12T22:30:26.515Z,100837.00
2019-02-12T22:32:59.254Z,100839.00
2019-02-12T22:35:32.043Z,100827.00
2019-02-12T22:38:04.960Z,100828.00
2019-02-12T22:40:38.742Z,100828.00
2019-02-12T22:43:12.019Z,100833.00
2019-02-12T22:45:44.752Z,100859.00
2019-02-12T22:48:17.735Z,100859.00
2019-02-12T22:50:50.515Z,100829.00
2019-02-12T22:53:23.414Z,100835.00
2019-02-12T22:55:56.074Z,100821.00
2019-02-12T22:58:28.966Z,100830.00
2019-02-12T23:01:03.378Z,100870.00
2019-02-12T23:03:36.439Z,100872.00
2019-02-12T23:06:09.367Z,100875.00
2019-02-12T23:08:42.485Z,100866.00
2019-02-12T23:11:15.228Z,100826.00
2019-02-12T23:13:51.713Z,100837.00
2019-02-12T23:16:24.469Z,100835.00
2019-02-12T23:18:57.428Z,100823.00
2019-02-12T23:21:30.261Z,100822.00
2019-02-12T23:24:03.947Z,100852.00
2019-02-12T23:26:37.236Z,100817.00
2019-02-12T23:29:10.223Z,100807.00
2019-02-12T23:31:43.018Z,100810.00
2019-02-12T23:34:17.054Z,100810.00
2019-02-12T23:36:50.653Z,100811.00
2019-02-12T23:39:24.185Z,100814.00
2019-02-12T23:41:57.618Z,100809.00
2019-02-12T23:44:32.194Z,100804.00
2019-02-12T23:47:05.530Z,100800.00
2019-02-12T23:49:39.951Z,100800.00
2019-02-12T23:52:13.343Z,100797.00
2019-02-12T23:54:46.735Z,100790.00
2019-02-12T23:57:20.033Z,100792.00
2019-02-12T23:59:54.371Z,100787.00
